createdAt,value
2022-11-05T00:02:08.576Z,61.50
2022-11-05T00:04:55.156Z,59.56
2022-11-05T00:07:48.070Z,60.24
2022-11-05T00:10:21.933Z,60.05
2022-11-05T00:13:09.517Z,60.78
2022-11-05T00:15:59.155Z,59.67
2022-11-05T00:18:28.921Z,61.51
2022-11-05T00:20:58.396Z,59.66
2022-11-05T00:23:44.692Z,61.73
2022-11-05T00:26:17.556Z,63.32
2022-11-05T00:28:48.403Z,62.75
2022-11-05T00:31:17.829Z,57.23
2022-11-05T00:33:46.955Z,58.75
2022-11-05T00:36:15.904Z,61.17
2022-11-05T00:38:45.726Z,61.84
2022-11-05T00:41:16.331Z,61.50
2022-11-05T00:44:02.864Z,62.98
2022-11-05T00:46:32.145Z,62.44
2022-11-05T00:49:19.570Z,60.32
2022-11-05T00:52:08.731Z,61.41
2022-11-05T00:54:38.183Z,61.51
2022-11-05T00:57:08.812Z,62.48
2022-11-05T00:59:38.483Z,63.72
2022-11-05T01:02:08.291Z,63.01
2022-11-05T01:04:37.987Z,63.39
2022-11-05T01:07:07.516Z,64.74
2022-11-05T01:09:36.812Z,64.20
2022-11-05T01:12:08.356Z,63.85
2022-11-05T01:14:37.658Z,64.86
2022-11-05T01:17:07.217Z,64.93
2022-11-05T01:19:36.484Z,66.80
2022-11-05T01:22:05.946Z,67.01
2022-11-05T01:24:35.930Z,66.34
2022-11-05T01:27:05.909Z,69.14
2022-11-05T01:29:38.115Z,71.01
2022-11-05T01:32:08.598Z,70.79
2022-11-05T01:34:40.629Z,70.81
2022-11-05T01:37:10.296Z,69.01
2022-11-05T01:39:40.039Z,69.95
2022-11-05T01:42:16.975Z,68.22
2022-11-05T01:45:03.361Z,69.44
2022-11-05T01:47:45.207Z,71.17
2022-11-05T01:50:32.714Z,70.47
2022-11-05T01:53:07.617Z,70.40
2022-11-05T01:55:39.907Z,71.76
2022-11-05T01:58:13.003Z,69.83
2022-11-05T02:00:44.967Z,69.15
2022-11-05T02:03:16.541Z,70.46
2022-11-05T02:05:46.711Z,71.45
2022-11-05T02:08:23.884Z,70.42
2022-11-05T02:10:53.516Z,71.10
2022-11-05T02:13:24.271Z,71.79
2022-11-05T02:16:04.088Z,71.69
2022-11-05T02:18:46.190Z,72.29
2022-11-05T02:21:35.933Z,72.04
2022-11-05T02:24:30.110Z,71.60
2022-11-05T02:27:14.299Z,69.39
2022-11-05T02:30:23.417Z,63.28
2022-11-05T02:33:31.108Z,67.87
2022-11-05T02:36:22.532Z,66.38
2022-11-05T02:39:00.464Z,68.89
2022-11-05T02:41:39.925Z,66.86
2022-11-05T02:44:17.740Z,67.82
2022-11-05T02:46:53.323Z,67.22
2022-11-05T02:49:32.932Z,67.71
2022-11-05T02:52:08.128Z,67.28
2022-11-05T02:54:41.271Z,68.89
2022-11-05T02:57:10.990Z,64.74
2022-11-05T02:59:42.649Z,66.08
2022-11-05T03:02:12.588Z,65.91
2022-11-05T03:04:42.284Z,65.36
2022-11-05T03:07:25.425Z,61.84
2022-11-05T03:10:20.127Z,63.26
2022-11-05T03:12:58.276Z,66.35
2022-11-05T03:15:40.400Z,67.80
2022-11-05T03:18:13.335Z,66.61
2022-11-05T03:20:48.052Z,67.17
2022-11-05T03:23:25.694Z,68.00
2022-11-05T03:25:59.481Z,69.03
2022-11-05T03:28:32.898Z,69.05
2022-11-05T03:31:06.352Z,68.34
2022-11-05T03:33:37.065Z,68.68
2022-11-05T03:36:11.735Z,66.50
2022-11-05T03:38:45.518Z,68.96
2022-11-05T03:41:17.474Z,70.20
2022-11-05T03:43:50.322Z,71.00
2022-11-05T03:46:24.682Z,69.20
2022-11-05T03:48:56.618Z,70.39
2022-11-05T03:51:40.193Z,69.25
2022-11-05T03:54:11.624Z,68.70
2022-11-05T03:56:44.811Z,70.15
2022-11-05T03:59:14.825Z,69.29
2022-11-05T04:01:44.824Z,71.30
2022-11-05T04:04:14.320Z,69.68
2022-11-05T04:07:01.044Z,70.67
2022-11-05T04:09:49.579Z,71.79
2022-11-05T04:12:36.735Z,72.59
2022-11-05T04:15:06.776Z,71.59
2022-11-05T04:17:35.281Z,65.70
2022-11-05T04:20:22.313Z,67.70
2022-11-05T04:23:32.975Z,66.44
2022-11-05T04:26:03.723Z,64.57
2022-11-05T04:28:47.266Z,63.92
2022-11-05T04:31:17.125Z,61.88
2022-11-05T04:33:46.748Z,60.76
2022-11-05T04:36:16.695Z,61.13
2022-11-05T04:38:46.028Z,61.25
2022-11-05T04:41:18.453Z,61.66
2022-11-05T04:43:47.730Z,63.21
2022-11-05T04:46:17.140Z,61.69
2022-11-05T04:48:46.646Z,62.19
2022-11-05T04:51:16.025Z,64.12
2022-11-05T04:53:45.510Z,64.00
2022-11-05T04:56:20.895Z,65.21
2022-11-05T04:58:50.600Z,60.57
2022-11-05T05:01:22.359Z,63.27
2022-11-05T05:03:53.105Z,62.11
2022-11-05T05:06:22.840Z,62.85
2022-11-05T05:08:53.283Z,63.01
2022-11-05T05:11:24.271Z,59.71
2022-11-05T05:13:53.554Z,60.30
2022-11-05T05:16:24.574Z,60.40
2022-11-05T05:18:54.543Z,60.66
2022-11-05T05:21:42.427Z,56.82
2022-11-05T05:24:14.073Z,57.54
2022-11-05T05:26:46.639Z,57.32
2022-11-05T05:29:16.492Z,57.08
2022-11-05T05:31:48.999Z,60.30
2022-11-05T05:34:18.251Z,57.94
2022-11-05T05:36:48.149Z,59.60
2022-11-05T05:39:17.615Z,56.28
2022-11-05T05:41:48.586Z,57.70
2022-11-05T05:44:18.597Z,59.06
2022-11-05T05:47:54.888Z,59.64
2022-11-05T05:50:25.595Z,59.00
2022-11-05T05:52:55.921Z,57.94
2022-11-05T05:55:38.335Z,58.16
2022-11-05T05:58:11.265Z,58.54
2022-11-05T06:00:52.060Z,58.52
2022-11-05T06:03:43.695Z,58.48
2022-11-05T06:06:26.628Z,59.33
2022-11-05T06:09:13.030Z,59.60
2022-11-05T06:11:42.356Z,59.57
2022-11-05T06:14:13.818Z,59.09
2022-11-05T06:16:43.280Z,61.42
2022-11-05T06:19:15.212Z,62.56
2022-11-05T06:21:44.701Z,60.67
2022-11-05T06:24:18.427Z,61.52
2022-11-05T06:26:51.706Z,60.25
2022-11-05T06:29:25.230Z,61.02
2022-11-05T06:31:55.546Z,59.59
2022-11-05T06:34:25.042Z,60.19
2022-11-05T06:36:54.324Z,60.74
2022-11-05T06:39:23.608Z,60.06
2022-11-05T06:42:18.320Z,59.93
2022-11-05T06:44:49.814Z,62.18
2022-11-05T06:47:19.900Z,59.79
2022-11-05T06:49:49.417Z,60.54
2022-11-05T06:52:18.656Z,61.79
2022-11-05T06:54:50.869Z,62.37
2022-11-05T06:57:20.158Z,61.45
2022-11-05T06:59:52.684Z,58.93
2022-11-05T07:02:25.345Z,61.83
2022-11-05T07:04:54.553Z,61.33
2022-11-05T07:07:23.500Z,61.84
2022-11-05T07:09:54.210Z,63.16
2022-11-05T07:12:30.300Z,62.92
2022-11-05T07:15:01.760Z,65.93
2022-11-05T07:17:31.417Z,63.92
2022-11-05T07:20:17.475Z,61.71
2022-11-05T07:22:46.446Z,60.72
2022-11-05T07:25:15.730Z,62.34
2022-11-05T07:27:44.832Z,60.56
2022-11-05T07:30:15.677Z,63.35
2022-11-05T07:32:45.405Z,64.66
2022-11-05T07:35:14.670Z,62.40
2022-11-05T07:37:44.868Z,63.04
2022-11-05T07:40:15.803Z,62.56
2022-11-05T07:42:46.769Z,65.59
2022-11-05T07:45:17.917Z,61.04
2022-11-05T07:47:48.937Z,59.29
2022-11-05T07:50:20.173Z,62.44
2022-11-05T07:52:50.231Z,61.87
2022-11-05T07:55:21.733Z,58.99
2022-11-05T07:57:52.088Z,56.75
2022-11-05T08:00:24.976Z,58.98
2022-11-05T08:05:48.607Z,57.79
2022-11-05T08:08:20.105Z,58.64
2022-11-05T08:10:49.684Z,57.26
2022-11-05T08:13:20.105Z,59.91
2022-11-05T08:15:51.337Z,61.80
2022-11-05T08:18:20.894Z,60.70
2022-11-05T08:20:50.876Z,60.20
2022-11-05T08:23:20.453Z,60.25
2022-11-05T08:25:50.127Z,56.53
2022-11-05T08:28:19.919Z,59.43
2022-11-05T08:30:52.987Z,59.92
2022-11-05T08:33:23.101Z,62.05
2022-11-05T08:35:53.031Z,60.96
2022-11-05T08:38:22.597Z,63.68
2022-11-05T08:40:57.643Z,57.29
2022-11-05T08:43:27.353Z,51.96
2022-11-05T08:45:58.508Z,56.38
2022-11-05T08:48:28.044Z,54.28
2022-11-05T08:50:57.408Z,50.96
2022-11-05T08:53:26.707Z,50.43
2022-11-05T08:56:00.702Z,52.88
2022-11-05T08:58:30.956Z,53.37
2022-11-05T09:01:05.221Z,52.00
2022-11-05T09:03:35.211Z,48.97
2022-11-05T09:06:04.803Z,51.43
2022-11-05T09:08:34.186Z,53.62
2022-11-05T09:11:04.485Z,50.19
2022-11-05T09:13:34.022Z,51.91
2022-11-05T09:16:05.048Z,54.40
2022-11-05T09:18:35.677Z,55.63
2022-11-05T09:21:05.160Z,54.95
2022-11-05T09:23:35.127Z,54.03
2022-11-05T09:26:05.001Z,52.77
2022-11-05T09:28:34.485Z,52.60
2022-11-05T09:31:08.669Z,54.79
2022-11-05T09:33:39.495Z,52.90
2022-11-05T09:36:10.380Z,52.06
2022-11-05T09:38:40.021Z,50.88
2022-11-05T09:41:13.711Z,52.26
2022-11-05T09:43:46.013Z,53.49
2022-11-05T09:46:20.910Z,51.75
2022-11-05T09:48:54.806Z,52.63
2022-11-05T09:51:24.974Z,52.06
2022-11-05T09:53:54.707Z,49.63
2022-11-05T09:56:26.079Z,50.25
2022-11-05T09:58:59.709Z,51.38
2022-11-05T10:01:33.526Z,48.35
2022-11-05T10:04:07.627Z,49.74
2022-11-05T10:06:38.339Z,50.16
2022-11-05T10:09:13.475Z,48.77
2022-11-05T10:11:47.013Z,50.29
2022-11-05T10:14:19.721Z,49.09
2022-11-05T10:16:54.569Z,48.73
2022-11-05T10:19:25.658Z,48.36
2022-11-05T10:22:06.725Z,49.54
2022-11-05T10:24:36.714Z,50.62
2022-11-05T10:31:35.446Z,50.58
2022-11-05T10:34:09.028Z,51.60
2022-11-05T10:36:39.982Z,47.82
2022-11-05T10:39:15.014Z,48.55
2022-11-05T10:41:56.465Z,48.94
2022-11-05T10:44:34.389Z,50.92
2022-11-05T10:47:28.338Z,50.01
2022-11-05T10:50:01.601Z,51.23
2022-11-05T10:52:35.831Z,48.33
2022-11-05T10:55:14.930Z,47.84
2022-11-05T10:57:46.305Z,50.77
2022-11-05T11:00:30.619Z,49.11
2022-11-05T11:03:02.734Z,48.06
2022-11-05T11:05:36.683Z,48.79
2022-11-05T11:08:19.787Z,46.60
2022-11-05T11:10:52.356Z,48.40
2022-11-05T11:13:23.876Z,47.57
2022-11-05T11:15:55.448Z,48.60
2022-11-05T11:18:33.378Z,46.90
2022-11-05T11:21:15.693Z,49.60
2022-11-05T11:23:45.837Z,49.10
2022-11-05T11:26:16.587Z,49.68
2022-11-05T11:28:49.080Z,50.94
2022-11-05T11:31:22.078Z,49.21
2022-11-05T11:33:53.060Z,50.76
2022-11-05T11:36:34.118Z,50.01
2022-11-05T11:39:05.664Z,48.46
2022-11-05T11:41:37.579Z,46.65
2022-11-05T11:44:11.358Z,46.41
2022-11-05T11:46:41.018Z,49.73
2022-11-05T11:49:32.579Z,51.03
2022-11-05T11:52:06.485Z,48.72
2022-11-05T11:54:36.447Z,48.09
2022-11-05T11:57:15.165Z,48.03
2022-11-05T12:00:07.899Z,50.01
2022-11-05T12:02:58.818Z,47.97
2022-11-05T12:05:42.997Z,50.14
2022-11-05T12:08:33.330Z,50.90
2022-11-05T12:11:07.661Z,48.64
2022-11-05T12:14:00.945Z,47.21
2022-11-05T12:17:09.876Z,50.50
2022-11-05T12:20:17.352Z,50.80
2022-11-05T12:23:08.971Z,50.58
2022-11-05T12:25:43.598Z,49.32
2022-11-05T12:28:24.293Z,50.27
2022-11-05T12:31:01.221Z,48.34
2022-11-05T12:33:44.374Z,48.97
2022-11-05T12:36:24.162Z,48.96
2022-11-05T12:39:07.378Z,45.57
2022-11-05T12:41:46.915Z,47.40
2022-11-05T12:44:31.464Z,44.66
2022-11-05T12:47:08.385Z,44.40
2022-11-05T12:49:53.810Z,46.86
2022-11-05T12:52:47.756Z,47.65
2022-11-05T12:55:19.573Z,49.24
2022-11-05T12:57:54.457Z,46.09
2022-11-05T13:00:29.060Z,45.72
2022-11-05T13:03:21.324Z,46.25
2022-11-05T13:05:52.771Z,45.39
2022-11-05T13:08:28.828Z,43.88
2022-11-05T13:11:00.596Z,46.63
2022-11-05T13:13:39.041Z,45.29
2022-11-05T13:16:15.053Z,46.20
2022-11-05T13:18:48.179Z,47.77
2022-11-05T13:21:19.101Z,48.82
2022-11-05T13:23:51.307Z,47.13
2022-11-05T13:26:24.200Z,47.99
2022-11-05T13:28:58.913Z,48.70
2022-11-05T13:31:31.673Z,46.28
2022-11-05T13:34:04.562Z,45.94
2022-11-05T13:37:04.088Z,47.32
2022-11-05T13:39:37.662Z,45.42
2022-11-05T13:42:36.079Z,45.08
2022-11-05T13:45:44.457Z,45.26
2022-11-05T13:48:53.648Z,46.51
2022-11-05T13:51:43.338Z,46.33
2022-11-05T13:54:36.348Z,45.71
2022-11-05T13:57:27.871Z,45.67
2022-11-05T14:00:06.350Z,45.14
2022-11-05T14:02:43.003Z,45.10
2022-11-05T14:05:25.554Z,43.98
2022-11-05T14:07:55.851Z,45.79
2022-11-05T14:10:35.388Z,45.99
2022-11-05T14:13:16.093Z,44.74
2022-11-05T14:15:59.470Z,44.85
2022-11-05T14:18:45.386Z,43.73
2022-11-05T14:21:50.310Z,47.65
2022-11-05T14:24:47.943Z,47.14
2022-11-05T14:27:43.725Z,46.37
2022-11-05T14:30:42.066Z,44.49
2022-11-05T14:33:33.703Z,44.08
2022-11-05T14:36:35.298Z,46.32
2022-11-05T14:39:21.676Z,45.50
2022-11-05T14:41:59.168Z,46.56
2022-11-05T14:44:29.378Z,44.61
2022-11-05T14:47:01.447Z,46.31
2022-11-05T14:49:33.132Z,45.57
2022-11-05T14:52:08.351Z,44.65
2022-11-05T14:54:42.603Z,44.44
2022-11-05T14:57:15.624Z,45.46
2022-11-05T15:00:03.159Z,46.71
2022-11-05T15:02:36.918Z,44.63
2022-11-05T15:05:37.736Z,47.73
2022-11-05T15:08:31.583Z,45.62
2022-11-05T15:11:10.805Z,44.50
2022-11-05T15:13:46.114Z,46.58
2022-11-05T15:16:19.198Z,46.91
2022-11-05T15:18:49.523Z,46.33
2022-11-05T15:21:20.131Z,47.27
2022-11-05T15:23:59.056Z,48.85
2022-11-05T15:26:32.122Z,47.99
2022-11-05T15:29:01.949Z,47.08
2022-11-05T15:31:34.930Z,46.57
2022-11-05T15:34:28.842Z,47.51
2022-11-05T15:37:01.985Z,48.14
2022-11-05T15:39:42.444Z,45.43
2022-11-05T15:42:16.418Z,47.35
2022-11-05T15:44:47.577Z,46.26
2022-11-05T15:47:20.246Z,46.08
2022-11-05T15:49:51.549Z,47.37
2022-11-05T15:52:22.877Z,48.38
2022-11-05T15:55:23.699Z,46.15
2022-11-05T15:58:00.932Z,44.33
2022-11-05T16:00:32.146Z,46.40
2022-11-05T16:03:05.837Z,47.06
2022-11-05T16:05:38.597Z,47.28
2022-11-05T16:08:08.161Z,48.88
2022-11-05T16:10:40.320Z,49.14
2022-11-05T16:13:28.481Z,49.56
2022-11-05T16:15:59.655Z,47.12
2022-11-05T16:18:34.577Z,46.34
2022-11-05T16:21:06.909Z,45.72
2022-11-05T16:23:45.309Z,47.17
2022-11-05T16:27:01.068Z,48.16
2022-11-05T16:29:29.477Z,45.67
2022-11-05T16:32:00.068Z,47.57
2022-11-05T16:34:32.333Z,47.95
2022-11-05T16:37:01.944Z,48.01
2022-11-05T16:39:31.344Z,49.07
2022-11-05T16:42:02.413Z,50.39
2022-11-05T16:44:32.042Z,48.71
2022-11-05T16:47:01.528Z,49.98
2022-11-05T16:49:31.329Z,50.53
2022-11-05T16:52:01.524Z,50.73
2022-11-05T16:54:31.098Z,51.30
2022-11-05T16:57:02.189Z,51.89
2022-11-05T16:59:32.130Z,52.58
2022-11-05T17:02:01.959Z,52.96
2022-11-05T17:04:31.677Z,53.34
2022-11-05T17:07:01.384Z,54.23
2022-11-05T17:09:31.917Z,54.92
2022-11-05T17:12:03.014Z,55.17
2022-11-05T17:14:32.350Z,54.67
2022-11-05T17:17:02.300Z,55.17
2022-11-05T17:19:32.426Z,54.48
2022-11-05T17:22:02.701Z,54.55
2022-11-05T17:24:32.260Z,55.55
2022-11-05T17:27:03.735Z,55.96
2022-11-05T17:29:32.935Z,55.63
2022-11-05T17:32:02.583Z,56.73
2022-11-05T17:34:32.266Z,56.98
2022-11-05T17:37:02.218Z,58.33
2022-11-05T17:39:32.207Z,57.60
2022-11-05T17:42:03.481Z,58.34
2022-11-05T17:44:32.854Z,58.69
2022-11-05T17:47:02.325Z,59.49
2022-11-05T17:49:31.811Z,59.31
2022-11-05T17:52:01.966Z,59.40
2022-11-05T17:54:32.499Z,58.64
2022-11-05T17:57:03.687Z,58.94
2022-11-05T17:59:33.946Z,60.13
2022-11-05T18:02:03.550Z,58.98
2022-11-05T18:04:33.882Z,59.16
2022-11-05T18:07:03.895Z,59.99
2022-11-05T18:09:33.215Z,59.42
2022-11-05T18:12:04.748Z,59.04
2022-11-05T18:14:34.117Z,58.59
2022-11-05T18:17:03.395Z,58.13
2022-11-05T18:19:33.204Z,56.57
2022-11-05T18:22:02.765Z,55.58
2022-11-05T18:24:32.356Z,56.50
2022-11-05T18:27:03.541Z,57.21
2022-11-05T18:29:33.226Z,57.48
2022-11-05T18:32:02.695Z,58.32
2022-11-05T18:34:33.851Z,58.99
2022-11-05T18:37:04.168Z,57.91
2022-11-05T18:39:33.553Z,57.90
2022-11-05T18:42:04.587Z,58.99
2022-11-05T18:44:39.015Z,57.99
2022-11-05T18:47:08.936Z,58.94
2022-11-05T18:49:38.946Z,59.37
2022-11-05T18:52:08.589Z,59.56
2022-11-05T18:54:38.663Z,59.71
2022-11-05T18:57:10.163Z,59.01
2022-11-05T18:59:42.228Z,59.96
2022-11-05T19:02:13.848Z,60.35
2022-11-05T19:05:06.664Z,60.04
2022-11-05T19:07:39.156Z,60.29
2022-11-05T19:10:09.798Z,61.41
2022-11-05T19:12:41.503Z,60.55
2022-11-05T19:15:11.722Z,60.08
2022-11-05T19:17:41.298Z,60.84
2022-11-05T19:20:12.191Z,61.90
2022-11-05T19:22:43.940Z,61.90
2022-11-05T19:25:13.764Z,61.25
2022-11-05T19:27:44.860Z,61.29
2022-11-05T19:30:15.530Z,62.08
2022-11-05T19:32:45.070Z,62.00
2022-11-05T19:35:14.963Z,61.62
2022-11-05T19:37:45.595Z,62.37
2022-11-05T19:40:15.104Z,63.15
2022-11-05T19:42:46.317Z,61.90
2022-11-05T19:45:42.821Z,63.73
2022-11-05T19:48:06.575Z,62.35
2022-11-05T19:50:36.747Z,64.03
2022-11-05T19:53:06.888Z,63.63
2022-11-05T19:55:39.875Z,64.40
2022-11-05T19:58:11.395Z,63.25
2022-11-05T20:00:43.882Z,65.02
2022-11-05T20:03:14.042Z,64.27
2022-11-05T20:05:43.575Z,63.79
2022-11-05T20:08:13.568Z,64.79
2022-11-05T20:10:43.680Z,63.78
2022-11-05T20:13:19.835Z,64.34
2022-11-05T20:15:50.229Z,64.84
2022-11-05T20:18:20.212Z,65.85
2022-11-05T20:20:50.064Z,64.57
2022-11-05T20:23:19.742Z,64.46
2022-11-05T20:25:49.371Z,65.69
2022-11-05T20:28:23.701Z,65.84
2022-11-05T20:30:53.442Z,65.73
2022-11-05T20:33:23.109Z,66.03
2022-11-05T20:35:52.865Z,65.17
2022-11-05T20:38:22.423Z,65.63
2022-11-05T20:40:51.914Z,64.81
2022-11-05T20:43:27.581Z,65.53
2022-11-05T20:46:00.035Z,64.94
2022-11-05T20:48:32.898Z,67.76
2022-11-05T20:51:06.317Z,65.23
2022-11-05T20:53:36.161Z,66.77
2022-11-05T20:56:09.157Z,65.40
2022-11-05T20:58:40.770Z,65.19
2022-11-05T21:01:12.542Z,66.14
2022-11-05T21:03:42.923Z,63.92
2022-11-05T21:06:12.798Z,66.25
2022-11-05T21:08:43.120Z,68.22
2022-11-05T21:11:12.858Z,65.59
2022-11-05T21:13:44.132Z,66.22
2022-11-05T21:16:17.892Z,66.17
2022-11-05T21:18:48.842Z,66.89
2022-11-05T21:21:22.221Z,64.90
2022-11-05T21:23:51.781Z,64.58
2022-11-05T21:26:21.790Z,66.88
2022-11-05T21:28:52.959Z,65.65
2022-11-05T21:31:22.888Z,65.03
2022-11-05T21:33:55.349Z,66.16
2022-11-05T21:36:25.042Z,66.77
2022-11-05T21:38:55.161Z,66.58
2022-11-05T21:41:24.639Z,66.11
2022-11-05T21:43:55.417Z,66.71
2022-11-05T21:46:25.040Z,67.43
2022-11-05T21:48:54.799Z,66.87
2022-11-05T21:51:42.361Z,68.15
2022-11-05T21:54:30.289Z,65.63
2022-11-05T21:57:17.206Z,65.60
2022-11-05T21:59:52.113Z,64.90
2022-11-05T22:02:23.700Z,64.73
2022-11-05T22:04:54.941Z,66.27
2022-11-05T22:07:26.267Z,65.90
2022-11-05T22:09:56.297Z,64.79
2022-11-05T22:12:26.128Z,66.38
2022-11-05T22:14:59.259Z,66.90
2022-11-05T22:17:28.600Z,67.51
2022-11-05T22:19:58.527Z,66.38
2022-11-05T22:22:28.292Z,65.48
2022-11-05T22:24:57.625Z,66.95
2022-11-05T22:27:27.210Z,65.41
2022-11-05T22:29:58.026Z,66.59
2022-11-05T22:32:27.888Z,66.77
2022-11-05T22:34:57.396Z,65.57
2022-11-05T22:37:27.037Z,65.49
2022-11-05T22:39:57.093Z,67.46
2022-11-05T22:42:27.002Z,67.93
2022-11-05T22:44:58.361Z,65.76
2022-11-05T22:47:27.805Z,67.09
2022-11-05T22:49:58.494Z,67.30
2022-11-05T22:52:28.203Z,68.18
2022-11-05T22:54:57.728Z,67.96
2022-11-05T22:57:27.471Z,68.69
2022-11-05T22:59:58.677Z,68.35
2022-11-05T23:02:28.514Z,66.82
2022-11-05T23:04:58.231Z,66.52
2022-11-05T23:07:45.153Z,67.74
2022-11-05T23:10:32.310Z,68.49
2022-11-05T23:13:02.001Z,69.22
2022-11-05T23:15:50.493Z,69.32
2022-11-05T23:18:37.152Z,67.17
2022-11-05T23:21:24.750Z,68.40
2022-11-05T23:24:07.939Z,67.66
2022-11-05T23:26:54.348Z,67.61
2022-11-05T23:29:27.383Z,67.43
2022-11-05T23:32:18.294Z,66.98
2022-11-05T23:34:48.289Z,67.04
2022-11-05T23:37:35.263Z,65.88
2022-11-05T23:40:04.760Z,68.79
2022-11-05T23:42:51.775Z,65.90
2022-11-05T23:45:47.431Z,67.69
2022-11-05T23:48:24.761Z,68.56
2022-11-05T23:50:58.275Z,64.91
2022-11-05T23:53:30.063Z,65.64
2022-11-05T23:56:04.634Z,66.43
2022-11-05T23:58:37.571Z,67.62
